createdAt,value
2022-10-22T00:00:50.680Z,2.22
2022-10-22T00:04:14.204Z,1.60
2022-10-22T00:07:36.414Z,1.80
2022-10-22T00:10:58.860Z,1.80
2022-10-22T00:14:20.954Z,1.80
2022-10-22T00:17:43.044Z,1.85
2022-10-22T00:21:07.411Z,1.60
2022-10-22T00:24:29.220Z,1.75
2022-10-22T00:27:51.202Z,1.70
2022-10-22T00:31:13.212Z,1.45
2022-10-22T00:34:35.313Z,1.70
2022-10-22T00:37:58.824Z,2.63
2022-10-22T00:41:20.638Z,1.70
2022-10-22T00:45:18.477Z,1.98
2022-10-22T00:48:40.334Z,2.00
2022-10-22T00:52:02.192Z,1.38
2022-10-22T00:55:26.564Z,1.67
2022-10-22T00:58:52.405Z,1.83
2022-10-22T01:02:14.483Z,1.75
2022-10-22T01:05:42.522Z,1.67
2022-10-22T01:09:14.397Z,1.95
2022-10-22T01:12:49.091Z,1.23
2022-10-22T01:16:16.268Z,1.55
2022-10-22T01:19:51.508Z,1.70
2022-10-22T01:23:24.511Z,1.67
2022-10-22T01:27:01.616Z,1.80
2022-10-22T01:30:26.049Z,1.50
2022-10-22T01:33:50.367Z,2.25
2022-10-22T01:37:15.416Z,1.70
2022-10-22T01:40:38.762Z,1.70
2022-10-22T01:44:00.340Z,1.67
2022-10-22T01:47:38.004Z,2.40
2022-10-22T01:51:14.635Z,2.92
2022-10-22T01:54:45.686Z,2.70
2022-10-22T01:58:20.611Z,2.58
2022-10-22T02:01:50.002Z,2.83
2022-10-22T02:05:18.487Z,2.40
2022-10-22T02:08:40.905Z,2.92
2022-10-22T02:15:34.666Z,2.05
2022-10-22T02:18:59.753Z,2.13
2022-10-22T02:22:23.308Z,2.60
2022-10-22T02:25:52.784Z,2.83
2022-10-22T02:29:20.138Z,3.22
2022-10-22T02:32:48.882Z,2.35
2022-10-22T02:36:11.837Z,3.05
2022-10-22T02:39:37.328Z,2.28
2022-10-22T02:42:59.252Z,2.63
2022-10-22T02:46:21.962Z,2.60
2022-10-22T02:49:43.732Z,2.15
2022-10-22T02:53:05.714Z,2.70
2022-10-22T02:56:28.945Z,2.58
2022-10-22T02:59:51.130Z,2.65
2022-10-22T03:03:13.064Z,2.72
2022-10-22T03:06:35.003Z,2.33
2022-10-22T03:09:57.035Z,2.28
2022-10-22T03:13:20.234Z,2.97
2022-10-22T03:16:42.307Z,2.90
2022-10-22T03:20:04.296Z,2.85
2022-10-22T03:23:26.965Z,2.67
2022-10-22T03:26:50.526Z,2.67
2022-10-22T03:30:14.692Z,2.92
2022-10-22T03:33:36.220Z,3.35
2022-10-22T03:36:59.952Z,2.58
2022-10-22T03:40:22.358Z,2.75
2022-10-22T03:43:49.634Z,2.83
2022-10-22T03:47:12.707Z,3.65
2022-10-22T03:50:34.276Z,2.83
2022-10-22T03:53:56.646Z,3.38
2022-10-22T03:57:18.474Z,3.78
2022-10-22T04:00:40.283Z,3.38
2022-10-22T04:04:03.494Z,2.90
2022-10-22T04:07:25.653Z,3.28
2022-10-22T04:10:52.606Z,3.08
2022-10-22T04:14:14.292Z,2.97
2022-10-22T04:17:36.982Z,3.40
2022-10-22T04:21:00.305Z,3.92
2022-10-22T04:24:22.359Z,3.33
2022-10-22T04:27:44.148Z,3.25
2022-10-22T04:31:10.543Z,3.47
2022-10-22T04:34:32.688Z,3.85
2022-10-22T04:37:56.624Z,3.95
2022-10-22T04:41:20.795Z,3.65
2022-10-22T04:44:42.290Z,4.15
2022-10-22T04:48:04.350Z,4.07
2022-10-22T04:51:27.982Z,4.10
2022-10-22T04:54:51.072Z,4.78
2022-10-22T04:58:12.778Z,5.13
2022-10-22T05:01:39.953Z,4.50
2022-10-22T05:05:05.351Z,5.15
2022-10-22T05:08:27.187Z,3.65
2022-10-22T05:11:53.002Z,4.38
2022-10-22T05:15:14.872Z,4.78
2022-10-22T05:18:37.916Z,3.83
2022-10-22T05:22:01.772Z,4.80
2022-10-22T05:25:23.764Z,4.13
2022-10-22T05:28:47.269Z,4.65
2022-10-22T05:32:09.353Z,4.45
2022-10-22T05:35:32.040Z,3.50
2022-10-22T05:38:53.581Z,4.10
2022-10-22T05:42:15.476Z,4.70
2022-10-22T05:45:39.715Z,4.05
2022-10-22T05:49:02.924Z,4.00
2022-10-22T05:52:25.071Z,3.72
2022-10-22T05:55:47.375Z,3.88
2022-10-22T05:59:08.948Z,3.20
2022-10-22T06:02:32.314Z,3.75
2022-10-22T06:05:54.337Z,3.95
2022-10-22T06:09:19.274Z,4.18
2022-10-22T06:12:40.981Z,3.80
2022-10-22T06:16:03.232Z,3.55
2022-10-22T06:19:27.233Z,3.95
2022-10-22T06:22:49.477Z,3.30
2022-10-22T06:26:12.202Z,3.00
2022-10-22T06:29:34.431Z,3.90
2022-10-22T06:32:57.235Z,3.42
2022-10-22T06:36:21.979Z,3.55
2022-10-22T06:39:43.961Z,3.42
2022-10-22T06:43:06.254Z,3.65
2022-10-22T06:46:28.224Z,3.70
2022-10-22T06:49:50.935Z,3.78
2022-10-22T06:53:13.954Z,2.80
2022-10-22T06:56:36.220Z,3.15
2022-10-22T06:59:58.158Z,2.97
2022-10-22T07:03:20.503Z,2.42
2022-10-22T07:06:42.332Z,2.50
2022-10-22T07:10:06.050Z,2.72
2022-10-22T07:13:28.030Z,2.50
2022-10-22T07:16:50.226Z,2.30
2022-10-22T07:20:13.047Z,2.47
2022-10-22T07:23:35.645Z,2.50
2022-10-22T07:26:59.097Z,2.55
2022-10-22T07:30:21.097Z,3.42
2022-10-22T07:33:43.087Z,3.00
2022-10-22T07:37:05.338Z,2.63
2022-10-22T07:40:27.359Z,3.17
2022-10-22T07:43:50.352Z,2.35
2022-10-22T07:47:12.496Z,3.13
2022-10-22T07:50:34.574Z,2.55
2022-10-22T07:53:56.316Z,3.45
2022-10-22T07:57:18.269Z,2.47
2022-10-22T08:00:41.602Z,2.60
2022-10-22T08:04:03.777Z,2.30
2022-10-22T08:10:52.800Z,2.35
2022-10-22T08:14:14.720Z,2.15
2022-10-22T08:17:38.196Z,2.38
2022-10-22T08:21:00.278Z,1.90
2022-10-22T08:24:22.405Z,2.13
2022-10-22T08:27:44.692Z,2.15
2022-10-22T08:31:07.657Z,2.38
2022-10-22T08:34:31.334Z,1.70
2022-10-22T08:37:53.347Z,1.85
2022-10-22T08:41:18.301Z,2.15
2022-10-22T08:44:57.504Z,1.50
2022-10-22T08:48:37.492Z,1.52
2022-10-22T08:52:01.817Z,1.70
2022-10-22T08:55:25.833Z,1.48
2022-10-22T08:58:55.109Z,1.48
2022-10-22T09:02:31.488Z,1.25
2022-10-22T09:06:00.289Z,1.25
2022-10-22T09:09:29.028Z,0.88
2022-10-22T09:12:51.335Z,1.10
2022-10-22T09:16:19.257Z,1.30
2022-10-22T09:19:50.368Z,1.38
2022-10-22T09:23:25.882Z,1.58
2022-10-22T09:26:49.461Z,1.23
2022-10-22T09:30:17.529Z,0.90
2022-10-22T09:33:40.835Z,1.30
2022-10-22T09:37:03.988Z,1.30
2022-10-22T09:40:26.008Z,1.40
2022-10-22T09:43:50.445Z,1.50
2022-10-22T09:47:42.855Z,1.40
2022-10-22T09:51:19.569Z,1.10
2022-10-22T09:54:43.509Z,1.40
2022-10-22T09:58:06.206Z,1.00
2022-10-22T10:01:32.820Z,1.00
2022-10-22T10:04:56.461Z,1.00
2022-10-22T10:08:19.584Z,3.88
2022-10-22T10:11:46.915Z,3.13
2022-10-22T10:15:18.922Z,1.80
2022-10-22T10:18:55.366Z,4.47
2022-10-22T10:22:31.763Z,5.40
2022-10-22T10:25:58.979Z,4.03
2022-10-22T10:29:34.999Z,3.00
2022-10-22T10:33:12.617Z,5.30
2022-10-22T10:36:44.968Z,5.20
2022-10-22T10:44:54.512Z,2.88
2022-10-22T10:48:47.954Z,1.60
2022-10-22T10:52:20.453Z,1.70
2022-10-22T10:55:54.875Z,1.40
2022-10-22T10:59:26.051Z,1.50
2022-10-22T11:03:18.516Z,1.60
2022-10-22T11:06:41.341Z,1.10
2022-10-22T11:10:15.296Z,1.20
2022-10-22T11:13:42.346Z,1.20
2022-10-22T11:17:07.653Z,1.30
2022-10-22T11:20:36.024Z,1.10
2022-10-22T11:24:09.663Z,0.93
2022-10-22T11:27:38.853Z,1.10
2022-10-22T11:31:04.383Z,1.20
2022-10-22T11:34:33.809Z,0.70
2022-10-22T11:37:58.003Z,1.02
2022-10-22T11:41:24.610Z,1.10
2022-10-22T11:45:01.088Z,1.30
2022-10-22T11:48:29.415Z,1.77
2022-10-22T11:51:52.673Z,1.60
2022-10-22T11:55:46.127Z,1.40
2022-10-22T11:59:39.262Z,1.08
2022-10-22T12:03:06.322Z,1.67
2022-10-22T12:06:29.200Z,1.52
2022-10-22T12:17:02.232Z,0.88
2022-10-22T12:23:49.716Z,0.90
2022-10-22T12:27:22.443Z,1.58
2022-10-22T12:30:45.042Z,0.98
2022-10-22T12:34:07.181Z,1.50
2022-10-22T12:37:31.719Z,1.20
2022-10-22T12:40:56.670Z,1.15
2022-10-22T12:44:19.935Z,1.08
2022-10-22T12:47:46.382Z,1.00
2022-10-22T12:51:10.211Z,1.30
2022-10-22T12:54:35.310Z,1.00
2022-10-22T12:57:57.241Z,1.30
2022-10-22T13:01:19.989Z,1.60
2022-10-22T13:04:41.884Z,1.88
2022-10-22T13:08:06.016Z,1.40
2022-10-22T13:11:35.474Z,1.27
2022-10-22T13:14:57.080Z,1.17
2022-10-22T13:18:21.158Z,1.08
2022-10-22T13:21:49.884Z,1.50
2022-10-22T13:25:24.085Z,2.60
2022-10-22T13:28:54.708Z,2.45
2022-10-22T13:32:29.109Z,3.47
2022-10-22T13:35:51.141Z,2.60
2022-10-22T13:39:18.253Z,2.15
2022-10-22T13:42:40.813Z,2.10
2022-10-22T13:46:04.412Z,2.80
2022-10-22T13:49:26.166Z,3.65
2022-10-22T13:52:51.174Z,3.25
2022-10-22T13:56:16.344Z,2.13
2022-10-22T13:59:38.166Z,2.15
2022-10-22T14:03:01.794Z,2.92
2022-10-22T14:06:28.656Z,6.32
2022-10-22T14:09:51.436Z,5.57
2022-10-22T14:13:14.397Z,2.28
2022-10-22T14:16:37.138Z,2.42
2022-10-22T14:20:02.252Z,2.25
2022-10-22T14:23:27.802Z,3.03
2022-10-22T14:26:50.625Z,2.75
2022-10-22T14:30:16.901Z,2.90
2022-10-22T14:33:41.048Z,2.65
2022-10-22T14:37:05.235Z,2.08
2022-10-22T14:40:28.907Z,2.50
2022-10-22T14:43:52.695Z,2.50
2022-10-22T14:47:15.649Z,2.90
2022-10-22T14:50:38.204Z,1.88
2022-10-22T14:54:02.598Z,1.83
2022-10-22T14:57:25.249Z,1.58
2022-10-22T15:00:48.139Z,1.65
2022-10-22T15:04:10.754Z,1.40
2022-10-22T15:07:33.511Z,2.53
2022-10-22T15:11:06.507Z,3.40
2022-10-22T15:14:29.773Z,3.70
2022-10-22T15:17:52.626Z,6.05
2022-10-22T15:21:17.796Z,5.18
2022-10-22T15:24:41.208Z,6.18
2022-10-22T15:28:09.847Z,5.95
2022-10-22T15:31:48.800Z,4.28
2022-10-22T15:35:11.803Z,3.15
2022-10-22T15:38:34.558Z,2.97
2022-10-22T15:41:57.805Z,3.47
2022-10-22T15:45:24.461Z,2.40
2022-10-22T15:48:50.700Z,2.28
2022-10-22T15:52:13.354Z,2.30
2022-10-22T15:55:36.512Z,2.53
2022-10-22T15:59:01.728Z,2.33
2022-10-22T16:02:26.936Z,2.53
2022-10-22T16:05:54.812Z,2.63
2022-10-22T16:09:20.004Z,2.90
2022-10-22T16:12:44.030Z,1.98
2022-10-22T16:16:08.820Z,2.20
2022-10-22T16:19:33.819Z,2.20
2022-10-22T16:22:56.986Z,2.70
2022-10-22T16:26:21.821Z,3.00
2022-10-22T16:29:45.669Z,2.50
2022-10-22T16:33:10.263Z,2.10
2022-10-22T16:36:37.009Z,2.63
2022-10-22T16:40:03.150Z,2.65
2022-10-22T16:43:31.017Z,1.88
2022-10-22T16:46:55.416Z,2.47
2022-10-22T16:50:18.988Z,2.28
2022-10-22T16:53:44.405Z,2.28
2022-10-22T16:57:07.569Z,2.55
2022-10-22T17:00:30.220Z,2.70
2022-10-22T17:03:55.020Z,2.83
2022-10-22T17:07:18.804Z,2.20
2022-10-22T17:10:43.804Z,2.78
2022-10-22T17:14:07.300Z,3.13
2022-10-22T17:17:30.748Z,3.15
2022-10-22T17:20:56.572Z,10.93
2022-10-22T17:24:20.841Z,3.63
2022-10-22T17:27:46.487Z,3.85
2022-10-22T17:31:13.029Z,4.25
2022-10-22T17:34:37.011Z,3.60
2022-10-22T17:38:00.846Z,3.45
2022-10-22T17:41:26.827Z,3.20
2022-10-22T17:44:51.319Z,3.20
2022-10-22T17:48:14.691Z,2.95
2022-10-22T17:51:37.447Z,3.40
2022-10-22T17:55:00.610Z,3.13
2022-10-22T17:58:23.465Z,3.72
2022-10-22T18:01:49.192Z,3.88
2022-10-22T18:05:13.683Z,3.42
2022-10-22T18:08:36.864Z,3.70
2022-10-22T18:12:00.012Z,3.05
2022-10-22T18:15:22.993Z,2.75
2022-10-22T18:18:50.039Z,2.90
2022-10-22T18:22:13.290Z,2.42
2022-10-22T18:25:41.167Z,3.30
2022-10-22T18:29:04.024Z,2.50
2022-10-22T18:32:27.298Z,3.00
2022-10-22T18:35:52.706Z,2.83
2022-10-22T18:39:17.202Z,3.00
2022-10-22T18:42:41.705Z,2.85
2022-10-22T18:46:09.673Z,3.50
2022-10-22T18:49:32.632Z,2.75
2022-10-22T18:52:57.228Z,2.55
2022-10-22T18:56:21.214Z,2.40
2022-10-22T18:59:45.210Z,2.70
2022-10-22T19:03:10.003Z,3.47
2022-10-22T19:06:37.148Z,4.65
2022-10-22T19:10:04.529Z,4.47
2022-10-22T19:13:29.640Z,4.68
2022-10-22T19:16:53.208Z,4.70
2022-10-22T19:20:24.872Z,4.20
2022-10-22T19:23:49.566Z,4.15
2022-10-22T19:27:14.265Z,3.90
2022-10-22T19:30:37.889Z,3.80
2022-10-22T19:34:03.062Z,4.32
2022-10-22T19:37:26.525Z,3.35
2022-10-22T19:40:52.046Z,3.50
2022-10-22T19:44:16.741Z,3.10
2022-10-22T19:47:40.213Z,3.55
2022-10-22T19:51:08.809Z,3.13
2022-10-22T19:54:32.074Z,3.30
2022-10-22T19:57:54.827Z,2.83
2022-10-22T20:01:20.538Z,2.88
2022-10-22T20:04:49.095Z,3.22
2022-10-22T20:11:36.907Z,3.42
2022-10-22T20:15:02.627Z,3.03
2022-10-22T20:18:27.131Z,2.80
2022-10-22T20:21:51.163Z,2.90
2022-10-22T20:25:15.303Z,2.83
2022-10-22T20:28:41.052Z,2.90
2022-10-22T20:32:05.495Z,2.10
2022-10-22T20:35:33.495Z,2.65
2022-10-22T20:39:02.362Z,2.42
2022-10-22T20:45:49.840Z,2.08
2022-10-22T20:49:17.207Z,2.40
2022-10-22T20:52:41.903Z,2.63
2022-10-22T20:56:06.723Z,2.65
2022-10-22T20:59:33.460Z,2.97
2022-10-22T21:02:58.936Z,2.78
2022-10-22T21:06:23.883Z,2.65
2022-10-22T21:09:48.936Z,2.30
2022-10-22T21:13:12.566Z,2.60
2022-10-22T21:16:37.927Z,2.65
2022-10-22T21:20:01.067Z,3.65
2022-10-22T21:23:24.425Z,3.92
2022-10-22T21:26:49.520Z,3.70
2022-10-22T21:30:14.546Z,3.70
2022-10-22T21:33:39.125Z,3.78
2022-10-22T21:37:03.019Z,4.13
2022-10-22T21:40:28.633Z,3.85
2022-10-22T21:43:53.945Z,4.45
2022-10-22T21:47:16.902Z,3.95
2022-10-22T21:50:44.263Z,4.10
2022-10-22T21:54:08.142Z,4.30
2022-10-22T21:57:31.831Z,4.72
2022-10-22T22:01:01.905Z,4.00
2022-10-22T22:04:24.960Z,4.47
2022-10-22T22:07:48.913Z,4.00
2022-10-22T22:11:14.210Z,4.13
2022-10-22T22:14:38.603Z,3.78
2022-10-22T22:18:03.960Z,3.40
2022-10-22T22:21:27.899Z,3.45
2022-10-22T22:24:51.159Z,3.58
2022-10-22T22:28:13.818Z,3.20
2022-10-22T22:31:37.800Z,3.08
2022-10-22T22:35:02.809Z,3.00
2022-10-22T22:38:26.967Z,3.05
2022-10-22T22:41:51.085Z,3.05
2022-10-22T22:45:14.590Z,2.78
2022-10-22T22:48:38.123Z,2.95
2022-10-22T22:52:03.549Z,3.28
2022-10-22T22:55:27.421Z,2.88
2022-10-22T22:58:51.713Z,2.88
2022-10-22T23:02:15.289Z,2.60
2022-10-22T23:05:39.475Z,2.50
2022-10-22T23:09:06.843Z,3.00
2022-10-22T23:12:31.847Z,3.17
2022-10-22T23:15:55.937Z,2.90
2022-10-22T23:19:21.961Z,2.83
2022-10-22T23:22:45.076Z,2.75
2022-10-22T23:26:13.308Z,3.03
2022-10-22T23:29:38.107Z,2.53
2022-10-22T23:33:00.976Z,2.92
2022-10-22T23:36:24.332Z,2.85
2022-10-22T23:39:47.499Z,3.20
2022-10-22T23:43:15.205Z,3.58
2022-10-22T23:46:40.172Z,3.85
2022-10-22T23:50:03.340Z,3.75
2022-10-22T23:53:26.501Z,3.75
2022-10-22T23:56:50.592Z,5.80
